Flight Track Log - Related Links

Times and Time Zones

All times are in EST time to prevent confusion due to time zone crossing. See the N234CE flight status page for this flight to view local times or setup timezone preferences in your user account.

Time Position Orientation Groundspeed Altitude Reporting Facility
EST Latitude Longitude Course Direction KTS MPH feet Rate Location/Type
Mon 08:06:41 PM 64.7500 -156.4500 60° Northeast 150 173 7,000  Level Anchorage Center
Mon 08:07:42 PM 64.7500 -156.3500 90° East 160 184 8,000 992 Climbing Anchorage Center
Mon 08:08:42 PM 64.7500 -156.2500 90° East 160 184 9,000 504 Climbing Anchorage Center
Mon 08:09:00 PM 64.7640 -156.0107 86° East  Level FlightAware Approximate
Mon 08:09:41 PM 64.7500 -156.1500 90° East 150 173 9,000  Level Anchorage Center
Mon 08:10:00 PM 64.7667 -155.9076 86° East  Level FlightAware Approximate
Mon 08:10:42 PM 64.7667 -156.0333 71° East 160 184 9,000  Level Anchorage Center
Mon 08:11:00 PM 64.7694 -155.8045 86° East  Level FlightAware Approximate
Mon 08:11:42 PM 64.7500 -155.9167 108° East 170 196 9,000  Level Anchorage Center
Mon 08:12:42 PM 64.7667 -155.8000 71° East 180 207 9,000  Level Anchorage Center
Mon 08:13:42 PM 64.7667 -155.6833 90° East 190 219 9,000  Level Anchorage Center
Mon 08:14:42 PM 64.7667 -155.5667 90° East 180 207 9,000  Level Anchorage Center
Mon 08:15:42 PM 64.7667 -155.4333 90° East 180 207 9,000  Level Anchorage Center
Mon 08:16:42 PM 64.7833 -155.3167 71° East 180 207 9,000  Level Anchorage Center
Mon 08:17:42 PM 64.7833 -155.2000 90° East 170 196 9,000  Level Anchorage Center
Mon 08:18:43 PM 64.7833 -155.0833 90° East 190 219 9,000  Level Anchorage Center
Mon 08:19:43 PM 64.7833 -154.9833 90° East 180 207 9,000  Level Anchorage Center
Mon 08:20:43 PM 64.7833 -154.8500 90° East 180 207 9,000  Level Anchorage Center
Mon 08:21:43 PM 64.8000 -154.7333 71° East 180 207 9,000  Level Anchorage Center
Mon 08:22:43 PM 64.8000 -154.6167 90° East 170 196 9,000  Level Anchorage Center
Mon 08:23:43 PM 64.8000 -154.5167 90° East 170 196 9,000 150 Level Anchorage Center
Mon 08:24:43 PM 64.8000 -154.3833 90° East 190 219 9,300 150 Climbing Anchorage Center
Mon 08:25:43 PM 64.8000 -154.2667 90° East 180 207 9,300  Level Anchorage Center
Mon 08:26:44 PM 64.8000 -154.1500 90° East 180 207 9,300  Level Anchorage Center
Mon 08:27:44 PM 64.8000 -154.0333 90° East 190 219 9,300  Level Anchorage Center
Mon 08:28:44 PM 64.8167 -153.9167 71° East 180 207 9,300  Level Anchorage Center
Mon 08:29:44 PM 64.8167 -153.7833 90° East 190 219 9,300 -150 Level Anchorage Center
Mon 08:30:44 PM 64.8167 -153.6667 90° East 190 219 9,000 -150 Descending Anchorage Center
Mon 08:31:44 PM 64.8167 -153.5500 90° East 190 219 9,000  Level Anchorage Center
Mon 08:32:44 PM 64.8167 -153.4333 90° East 180 207 9,000  Level Anchorage Center
Mon 08:33:44 PM 64.8167 -153.3000 90° East 190 219 9,000  Level Anchorage Center
Mon 08:34:45 PM 64.8167 -153.1833 90° East 180 207 9,000  Level Anchorage Center
Mon 08:35:44 PM 64.8333 -153.0667 71° East 190 219 9,000  Level Anchorage Center
Mon 08:36:45 PM 64.8333 -152.9500 90° East 180 207 9,000  Level Anchorage Center
Mon 08:37:45 PM 64.8333 -152.8333 90° East 180 207 9,000  Level Anchorage Center
Mon 08:38:45 PM 64.8333 -152.7167 90° East 180 207 9,000  Level Anchorage Center
Mon 08:39:45 PM 64.8333 -152.5833 90° East 190 219 9,000  Level Anchorage Center
Mon 08:40:45 PM 64.8333 -152.4667 90° East 190 219 9,000  Level Anchorage Center
Mon 08:41:45 PM 64.8333 -152.3500 90° East 190 219 9,000  Level Anchorage Center
Mon 08:42:45 PM 64.8333 -152.2333 90° East 190 219 9,000  Level Anchorage Center
Mon 08:43:45 PM 64.8333 -152.1000 90° East 180 207 9,000  Level Anchorage Center
Mon 08:44:45 PM 64.8333 -151.9833 90° East 170 196 9,000  Level Anchorage Center
Mon 08:45:46 PM 64.8333 -151.8667 90° East 170 196 9,000  Level Anchorage Center
Mon 08:46:45 PM 64.8500 -151.7500 71° East 190 219 9,000 100 Level Anchorage Center
Mon 08:47:46 PM 64.8500 -151.6333 90° East 190 219 9,200 -248 Climbing Anchorage Center
Mon 08:48:46 PM 64.8333 -151.5000 106° East 200 230 8,500 -550 Descending Anchorage Center
Mon 08:49:46 PM 64.8333 -151.3667 90° East 200 230 8,100 -400 Descending Anchorage Center
Mon 08:50:46 PM 64.8333 -151.2500 90° East 190 219 7,700 -350 Descending Anchorage Center
Mon 08:51:46 PM 64.8500 -151.1333 71° East 190 219 7,400 -300 Descending Anchorage Center
Mon 08:52:46 PM 64.8333 -151.0000 106° East 180 207 7,100 -100 Descending Anchorage Center
Mon 08:53:46 PM 64.8500 -150.8833 71° East 180 207 7,200 50 Climbing Anchorage Center
Mon 08:54:46 PM 64.8333 -150.7833 111° Southeast 160 184 7,200  Level Anchorage Center
Mon 08:55:46 PM 64.8333 -150.6667 90° East 180 207 7,200  Level Anchorage Center
Mon 08:56:46 PM 64.8333 -150.5500 90° East 170 196 7,200  Level Anchorage Center
Mon 08:57:46 PM 64.8333 -150.4333 90° East 170 196 7,200  Level Anchorage Center
Mon 08:58:47 PM 64.8333 -150.3167 90° East 180 207 7,200  Level Anchorage Center
Mon 08:59:47 PM 64.8333 -150.2167 90° East 170 196 7,200  Level Anchorage Center
Mon 09:00:47 PM 64.8333 -150.1000 90° East 170 196 7,200 -50 Level Anchorage Center
Mon 09:01:47 PM 64.8333 -149.9833 90° East 170 196 7,100 -150 Descending Anchorage Center
Mon 09:02:47 PM 64.8333 -149.8667 90° East 180 207 6,900 -250 Descending Anchorage Center
Mon 09:03:47 PM 64.8333 -149.7500 90° East 170 196 6,600 -300 Descending Anchorage Center
Mon 09:04:47 PM 64.8333 -149.6500 90° East 180 207 6,300 -300 Descending Anchorage Center

Login

Don't have an account? Register now (free) for customized features, flight alerts, and more!